Weather observations for the past three days for
Middlesboro, Middlesboro-Bell County Airport
Metric (Imperial)
Date Time (edt) Wind (kph) Vis. (km) Weather Sky Cond. Temperature (ºC) Relative Humidity Wind Chill (°C) Heat Index (°C) Pressure Precipitation (cm)
Air Dwpt 6 hour altimeter (cm) sea level (mb) 1 hr 3 hr 6 hr
Max. Min.
01 18:15 Calm 16.09 Fair CLR 33 22.3 53% 37 76.48 0.0
01 17:55 Calm 16.09 Partly Cloudy SCT050 33.4 21.6 50% 37 76.48 0.0
01 17:35 Calm 16.09 Partly Cloudy SCT050 33.9 21.4 48% 38 76.48 0.0
01 17:15 Calm 16.09 Partly Cloudy SCT085 33.6 21.5 49% 37 76.48 0.0
01 16:55 Calm 16.09 Partly Cloudy SCT085 33.1 21.1 49% 36 76.5 0.0
01 16:35 Calm 16.09 Partly Cloudy SCT075 32.6 21.8 53% 36 76.5 0.0
01 16:15 N 7 16.09 Partly Cloudy SCT075 SCT085 33.1 22.4 53% 38 76.5 0.0
01 15:55 Calm 16.09 Partly Cloudy SCT060 32.6 20.5 49% 35 76.5 0.0
01 15:35 Calm 16.09 Mostly Cloudy BKN050 32.3 20.8 51% 35 76.53 0.0
01 15:15 Calm 16.09 Partly Cloudy SCT050 32.5 20.4 49% 35 76.53 0.0
01 14:55 E 7 16.09 Mostly Cloudy BKN050 33.9 20.7 46% 37 76.56 0.0
01 14:35 Calm 16.09 Mostly Cloudy BKN050 BKN065 33.4 20.6 47% 36 76.56 0.0
01 14:15 N 6 16.09 Partly Cloudy SCT050 33.5 20.8 47% 37 76.58 0.0
01 13:55 Calm 16.09 Fair CLR 33.8 20.4 33.9 19.8 45% 37 76.58 0.0
01 13:35 W 9 16.09 Partly Cloudy SCT045 SCT065 32.4 21 51% 35 76.61 0.0
01 13:15 Calm 16.09 Fair CLR 32.3 21.8 54% 36 76.63 0.0
01 12:55 Calm 16.09 Fair CLR 32.2 22.3 56% 36 76.63 0.0
01 12:35 Calm 16.09 Fair CLR 31.5 22.1 57% 35 76.66 0.0
01 12:15 Calm 16.09 Fair CLR 31 22.2 59% 35 76.68 0.0
01 11:55 Calm 16.09 Fair CLR 30 22.1 63% 33 76.68 0.0
01 11:35 Calm 16.09 Fair CLR 28.9 22.1 67% 32 76.71 0.0
01 11:15 Calm 16.09 Fair CLR 27.9 22.1 71% 31 76.71 0.0
01 10:55 Calm 16.09 Fair CLR 26.6 21.5 74% 28 76.71 0.0
01 10:35 Calm 16.09 Fair CLR 25.4 21.1 77% 27 76.73 0.0
01 10:15 Calm 16.09 Fair CLR 23.9 21.2 85% 24 76.73 0.0
01 09:55 Calm 16.09 Partly Cloudy SCT004 22.5 21 91% 76.73 0.0
01 09:35 Calm 16.09 Overcast OVC002 21.5 20.7 95% 76.73 0.0
01 09:15 Calm 11.27 Overcast OVC002 21.1 20.6 97% 76.73 0.0
01 08:55 Calm 3.22 Fog/Mist OVC002 20.6 20.5 99% 76.73 0.0
01 08:35 Calm 3.22 Fog/Mist OVC002 20.4 20.4 100% 76.73 0.0
01 08:15 Calm 0.40 Fog OVC002 20 20 100% 76.73 0.0
01 07:55 Calm 0.80 Fog OVC002 19.8 19.8 21.3 19.5 100% 76.71 0.0
01 07:35 Calm 0.40 Fog OVC002 19.7 19.7 100% 76.71 0.0
01 07:15 Calm 3.22 Fog/Mist OVC002 19.7 19.7 100% 76.66 0.0
01 06:55 Calm 16.09 Overcast OVC002 19.6 19.6 100% 76.63 0.0
01 06:35 Calm 2.41 Fog/Mist OVC002 19.5 19.5 100% 76.63 0.0
01 06:15 Calm 0.80 Fog OVC002 19.6 19.6 100% 76.61 0.0
01 05:55 Calm 6.44 Fog/Mist OVC002 19.6 19.6 100% 76.58 0.0
01 05:35 Calm 11.27 Overcast OVC002 19.6 19.6 100% 76.58 0.0
01 05:15 Calm 11.27 Partly Cloudy SCT002 19.7 19.7 100% 76.56 0.0
01 04:55 Calm 16.09 Fair CLR 20 19.7 98% 76.56 0.0
01 04:35 Calm 16.09 Fair CLR 20.2 19.9 98% 76.58 0.0
01 04:15 Calm 16.09 Fair CLR 20.5 20 97% 76.58 0.0
01 03:55 Calm 16.09 Fair CLR 20.7 20.3 98% 76.58 0.0
01 03:35 Calm 16.09 Partly Cloudy SCT002 20.8 20.2 96% 76.58 0.0
01 03:15 Calm 11.27 Mostly Cloudy SCT002 BKN007 20.7 20.6 99% 76.61 0.0
01 02:55 Calm 16.09 Fair CLR 20.6 20.3 98% 76.61 0.0
01 02:35 Calm 16.09 Fair CLR 21.1 20.6 97% 76.63 0.0
01 02:15 Calm 16.09 Fair CLR 21.2 20.6 96% 76.63 0.0
01 01:55 Calm 16.09 Fair CLR 21.3 21 27 21.1 98% 76.63 0.0
01 01:35 Calm 16.09 Fair CLR 21.6 21 96% 76.63 0.0
01 01:15 Calm 16.09 Fair CLR 21.6 21 96% 76.63 0.0
01 00:55 Calm 16.09 Fair CLR 21.7 21.2 97% 76.63 0.0
01 00:15 Calm 16.09 Fair CLR 22.3 21.5 95% 76.63 0.0
31 23:35 Calm 16.09 Fair CLR 23 21.9 94% 76.61 0.0
31 23:15 Calm 16.09 Fair CLR 23.4 21.5 89% 76.61 0.0
31 22:55 Calm 16.09 Fair CLR 23.5 21.7 90% 76.58 0.0
31 22:35 Calm 16.09 Fair CLR 23.8 21.9 89% 76.58 0.0
31 22:15 Calm 16.09 Fair CLR 24 22 89% 24 76.58 0.0
31 21:55 Calm 16.09 Fair CLR 24.1 22 88% 24 76.58 0.0
31 21:35 Calm 16.09 Fair CLR 24.5 22.2 87% 25 76.56 0.0
31 21:15 Calm 16.09 Fair CLR 24.8 22.5 87% 25 76.53 0.0
31 20:55 W 6 16.09 Fair CLR 25.2 22.7 86% 26 76.53 0.0
31 20:35 W 9 16.09 Fair CLR 25.7 22.8 84% 27 76.53 0.0
31 20:15 W 6 16.09 Fair CLR 26.3 22.9 82% 28 76.53 0.0
31 19:35 NW 7 16.09 Fair CLR 28 23.6 77% 32 76.53 0.0
31 19:15 W 6 16.09 Fair CLR 28.8 24 75% 33 76.53 0.0
31 18:55 SW 7 16.09 Fair CLR 30 24.5 72% 36 76.53 0.0
31 18:35 SW 6 16.09 Fair CLR 31 23 62% 35 76.53 0.0
31 18:15 S 7 16.09 Fair CLR 31.6 22.4 58% 36 76.53 0.0
31 17:55 S 6 16.09 Fair CLR 32.1 21.8 54% 36 76.53 0.0
31 17:35 Calm 16.09 Fair CLR 32 22 55% 36 76.56 0.0
31 17:15 Calm 16.09 Fair CLR 31.5 21 54% 34 76.56 0.0
31 16:55 S 6 16.09 Fair CLR 30.7 24 67% 36 76.56 0.0
31 16:35 SW 6 16.09 Mostly Cloudy SCT065 SCT075 BKN090 30 22 62% 33 76.58 0.0
31 16:15 S 6 16.09 Overcast SCT022 SCT048 OVC065 30.5 21.6 59% 34 76.58 0.0
31 15:55 E 9 16.09 Light Rain SCT023 BKN045 OVC065 32.2 22.9 58% 37 76.61 0.0
31 15:35 S 6 16.09 Overcast SCT046 BKN065 OVC085 32.5 21.4 52% 36 76.61 0.0
31 15:15 SW 7 16.09 Mostly Cloudy BKN044 BKN060 32.1 21.8 54% 36 76.63 0.0
31 14:55 E 7 16.09 Fair CLR 32.8 21.4 51% 36 76.63 0.0
31 14:35 S 6 16.09 Fair CLR 32 21.8 55% 36 76.66 0.0
31 14:15 SE 6 16.09 Partly Cloudy SCT039 SCT095 30.9 21.7 58% 34 76.66 0.0
31 13:55 Calm 16.09 Overcast OVC039 30 21.1 31.6 18.7 59% 33 76.68 0.0
31 13:35 Calm 16.09 Mostly Cloudy SCT041 BKN050 BKN060 31.3 22 58% 35 76.68 0.0
31 13:15 Calm 16.09 Mostly Cloudy SCT039 SCT048 BKN060 30.9 21.5 57% 34 76.68 0.0
31 12:55 Calm 16.09 Mostly Cloudy SCT039 BKN045 BKN060 31.4 21.6 56% 35 76.71 0.0
31 12:35 Calm 16.09 Partly Cloudy SCT045 SCT060 30.9 21.7 58% 34 76.73 0.0
31 12:15 E 6 16.09 Fair CLR 30.3 22.5 63% 34 76.73 0.0
31 11:55 Calm 16.09 Fair CLR 29.2 22.2 66% 32 76.73 0.0
31 11:35 Calm 16.09 Fair CLR 28.2 21.8 68% 31 76.73 0.0
31 11:15 Calm 16.09 Fair CLR 27.2 21.5 71% 29 76.73 0.0
31 10:55 NE 6 16.09 Fair CLR 26 21.2 75% 27 76.76 0.0
31 10:35 Calm 16.09 Fair CLR 25.2 20.8 77% 26 76.76 0.0
31 10:15 Calm 16.09 Fair CLR 23.7 20.5 82% 76.73 0.0
31 09:55 Calm 16.09 Fair CLR 23 20.3 85% 76.76 0.0
31 09:35 Calm 8.05 Fog/Mist SCT005 21.5 20 91% 76.76 0.0
31 09:15 Calm 11.27 Mostly Cloudy BKN003 20.5 19.5 94% 76.76 0.0
31 08:55 Calm 8.05 Fog/Mist OVC003 19.7 19.3 98% 76.76 0.0
31 08:35 Calm 6.44 Fog/Mist OVC003 19.2 19.1 99% 76.76 0.0
31 08:15 Calm 2.82 Fog/Mist BKN003 18.9 18.8 99% 76.73 0.0
31 07:55 Calm 8.05 Fog/Mist SCT003 18.7 18.6 20 18.3 99% 76.73 0.0
31 07:35 Calm 6.44 Fog/Mist BKN003 18.5 18.5 100% 76.71 0.0
31 07:15 Calm 3.22 Fog/Mist OVC003 18.5 18.5 100% 76.71 0.0
31 06:55 Calm 6.44 Fog/Mist BKN001 BKN005 18.5 18.5 100% 76.71 0.0
31 06:35 Calm 8.05 Fog/Mist CLR 18.5 18.3 99% 76.68 0.0
31 06:15 Calm 11.27 Fair CLR 18.5 18.4 99% 76.66 0.0
31 05:55 Calm 11.27 Fair CLR 18.7 18.5 99% 76.66 0.0
31 05:35 Calm 11.27 Fair CLR 18.5 18.3 99% 76.63 0.0
31 05:15 Calm 11.27 Fair CLR 18.7 18.5 99% 76.63 0.0
31 04:55 Calm 8.05 Fog/Mist CLR 19 18.7 98% 76.63 0.0
31 04:15 Calm 16.09 Fair CLR 19 18.7 98% 76.61 0.0
31 03:55 Calm 16.09 Fair CLR 19 18.7 98% 76.61 0.0
31 03:35 Calm 16.09 Partly Cloudy SCT004 19.2 18.8 98% 76.63 0.0
31 03:15 Calm 16.09 Partly Cloudy SCT004 19.5 19.1 98% 76.63 0.0
31 02:55 Calm 16.09 Fair CLR 19.3 19 98% 76.63 0.0
31 02:35 Calm 16.09 Fair CLR 19.6 19 96% 76.63 0.0
31 02:15 Calm 16.09 Fair CLR 20 19.1 95% 76.63 0.0
31 01:55 Calm 16.09 Fair CLR 19.8 19.1 25.8 19.7 96% 76.63 0.0
31 01:35 Calm 16.09 Fair CLR 20.1 19.2 95% 76.66 0.0
31 01:15 Calm 16.09 Fair CLR 20 19.3 96% 76.66 0.0
31 00:55 Calm 16.09 Fair CLR 20.4 19.4 94% 76.66 0.0
31 00:35 Calm 16.09 Fair CLR 20.5 19.5 94% 76.63 0.0
31 00:15 Calm 16.09 Fair CLR 20.7 19.6 93% 76.63 0.0
30 23:55 Calm 16.09 Fair CLR 21 19.5 91% 76.63 0.0
30 23:35 Calm 16.09 Fair CLR 21.4 19.6 90% 76.63 0.0
30 23:15 Calm 16.09 Fair CLR 21.5 19.6 89% 76.63 0.0
30 22:55 Calm 16.09 Fair CLR 22.2 20 87% 76.63 0.0
30 22:35 Calm 16.09 Fair CLR 22.2 20 87% 76.63 0.0
30 22:15 Calm 16.09 Fair CLR 22.7 20 85% 76.63 0.0
30 21:55 W 6 16.09 Fair CLR 23 20.1 84% 76.61 0.0
30 21:35 W 6 16.09 Fair CLR 23.5 20.1 81% 76.61 0.0
30 21:15 Calm 16.09 Fair CLR 23.7 20.4 82% 76.58 0.0
30 20:55 W 7 16.09 Fair CLR 24.5 20.7 79% 25 76.58 0.0
30 20:35 W 7 16.09 Fair CLR 25 21.1 79% 26 76.56 0.0
30 20:15 W 9 16.09 Fair CLR 25.5 21.1 77% 27 76.56 0.0
30 19:55 NW 7 16.09 Fair CLR 25.9 21.6 32.8 25.9 77% 27 76.56 0.0
30 19:35 W 6 16.09 Fair CLR 27.1 22.2 75% 29 76.53 0.0
30 19:15 Calm 16.09 Fair CLR 28.1 22.8 73% 31 76.53 0.0
30 18:55 W 6 16.09 Fair CLR 29.4 22.5 66% 33 76.53 0.0
30 18:35 Calm 16.09 Fair CLR 29.4 22.7 67% 33 76.5 0.0
30 18:15 W 7 16.09 Fair CLR 30.8 20.8 55% 33 76.5 0.0
30 17:55 Calm 16.09 Fair CLR 30.9 20.4 54% 33 76.53 0.0
30 17:35 Calm 16.09 Fair CLR 31.7 20.3 51% 34 76.53 0.0
30 17:15 Calm 16.09 Fair CLR 31.3 20.6 53% 34 76.53 0.0
30 16:55 Calm 16.09 Partly Cloudy SCT050 SCT065 SCT080 30.7 20.9 56% 33 76.53 0.0
30 16:35 NE 7 16.09 Overcast BKN050 BKN065 OVC080 30.1 22 62% 33 76.56 0.0
30 16:15 N 9 16.09 Overcast OVC050 30.8 22.4 61% 35 76.56 0.0
30 15:55 S 15 16.09 Mostly Cloudy BKN050 BKN075 32.6 20.4 49% 35 76.58 0.0
30 15:35 S 13 16.09 Fair CLR 32.5 20.5 49% 35 76.58 0.0
30 15:15 S 13 16.09 Fair CLR 32.2 20.1 49% 34 76.61 0.0
30 14:55 S 7 16.09 Fair CLR 31.6 20.5 52% 34 76.63 0.0
30 14:35 S 13 16.09 Fair CLR 32 21.4 53% 35 76.66 0.0
30 14:15 S 11 16.09 Partly Cloudy SCT042 31.5 20.6 52% 34 76.68 0.0
30 13:55 S 11 16.09 Fair CLR 31.3 21.5 31.3 18.7 56% 34 76.71 0.0
30 13:35 S 11 16.09 Fair CLR 31 21.5 57% 34 76.73 0.0
30 13:15 S 15 16.09 Fair CLR 30.7 21.6 58% 34 76.73 0.0
30 12:55 S 11 16.09 Partly Cloudy SCT034 SCT080 30.3 21.5 59% 33 76.76 0.0
30 12:35 S 11 16.09 Fair CLR 30.2 22 62% 34 76.76 0.0
30 12:15 S 11 16.09 Fair CLR 29.8 22 63% 33 76.78 0.0
30 11:55 S 11 16.09 Fair CLR 29.3 21.9 64% 32 76.81 0.0
30 11:35 S 6 16.09 Fair CLR 28.5 21.7 67% 31 76.81 0.0
30 11:15 SE 7 16.09 Fair CLR 28.1 21.9 69% 31 76.81 0.0
30 10:55 S 11 16.09 Fair CLR 27.6 21.5 69% 30 76.78 0.0
30 10:35 S 11 16.09 Fair CLR 26.9 21.2 71% 29 76.78 0.0
30 10:15 S 7 16.09 Fair CLR 26.6 21.1 72% 28 76.78 0.0
30 09:55 Calm 16.09 Fair CLR 23.9 21.1 84% 24 76.81 0.0
30 09:35 Calm 16.09 Fair CLR 22.6 20.5 88% 76.81 0.0
30 09:15 Calm 16.09 Partly Cloudy SCT003 21.3 20.1 93% 76.81 0.0
30 08:55 Calm 16.09 Mostly Cloudy BKN001 20.3 19.7 96% 76.78 0.0
30 08:35 Calm 2.01 Fog/Mist OVC001 19.4 19.4 100% 76.78 0.0
30 08:15 Calm 1.61 Fog/Mist OVC001 19 19 100% 76.78 0.0
30 07:55 Calm 0.40 Fog OVC001 18.7 18.7 20.2 18.2 100% 76.76 0.0
30 07:35 Calm 6.44 Fog/Mist OVC001 18.6 18.6 100% 76.73 0.0
30 07:15 Calm 16.09 Mostly Cloudy BKN001 18.4 18.2 99% 76.73 0.0
30 06:55 Calm 16.09 Mostly Cloudy BKN001 18.7 18.7 100% 76.73 0.0
30 06:35 Calm 1.21 Fog/Mist OVC001 18.3 18.3 100% 76.71 0.0
30 06:15 Calm 16.09 Partly Cloudy SCT003 19 18.7 98% 76.73 0.0
30 05:55 Calm 16.09 Fair CLR 18.6 18.4 99% 76.71 0.0
30 05:35 Calm 16.09 Fair CLR 19.1 18.9 99% 76.71 0.0
30 05:15 Calm 16.09 Partly Cloudy SCT004 19.1 19 99% 76.68 0.0
30 04:55 Calm 16.09 Partly Cloudy SCT002 19.1 18.8 98% 76.68 0.0
30 04:35 Calm 16.09 Partly Cloudy SCT002 18.7 18.6 99% 76.68 0.0
30 04:15 Calm 16.09 Fair CLR 19.2 19.1 99% 76.68 0.0
30 03:55 Calm 16.09 Fair CLR 19.5 19.3 99% 76.66 0.0
30 03:35 Calm 16.09 Fair CLR 19.5 19.3 99% 76.68 0.0
30 03:15 Calm 16.09 Fair CLR 19.6 19.2 98% 76.66 0.0
30 02:55 Calm 16.09 Fair CLR 20 19.5 97% 76.66 0.0
30 02:35 Calm 16.09 Fair CLR 20 19.5 97% 76.68 0.0
30 02:15 Calm 16.09 Fair CLR 20.1 19.6 97% 76.68 0.0
30 01:55 Calm 16.09 Fair CLR 20.2 19.8 25.8 20.1 98% 76.68 0.0
30 01:35 Calm 16.09 Fair CLR 20.3 19.6 96% 76.71 0.0
30 01:15 Calm 16.09 Fair CLR 20.6 19.9 96% 76.68 0.0
30 00:55 Calm 16.09 Fair CLR 20.5 19.8 96% 76.68 0.0
30 00:35 Calm 16.09 Fair CLR 20.8 20 95% 76.66 0.0
30 00:15 Calm 16.09 Fair CLR 20.9 20 95% 76.66 0.0
29 23:55 Calm 16.09 Fair CLR 21.6 20 91% 76.66 0.0
29 23:35 Calm 16.09 Fair CLR 21.5 20.1 92% 76.66 0.0
29 23:15 Calm 16.09 Fair CLR 21.8 20.1 90% 76.66 0.0
29 22:55 NW 6 16.09 Partly Cloudy SCT050 SCT070 21.9 20.1 90% 76.66 0.0
29 22:35 Calm 16.09 Partly Cloudy SCT050 22.6 20.2 86% 76.63 0.0
29 22:15 Calm 16.09 Fair CLR 22.7 20.2 86% 76.63 0.0
29 21:55 Calm 16.09 Fair CLR 23 20.3 85% 76.61 0.0
29 21:35 W 6 16.09 Fair CLR 23.2 20.5 85% 76.61 0.0
29 21:15 Calm 16.09 Fair CLR 23.6 20.6 83% 76.58 0.0
29 20:55 W 6 16.09 Fair CLR 24 20.7 82% 24 76.56 0.0
29 20:35 W 7 16.09 Fair CLR 24.5 20.9 80% 25 76.56 0.0
29 20:15 W 7 16.09 Fair CLR 25 20.9 78% 26 76.53 0.0
29 19:55 W 7 16.09 Fair CLR 25.9 21.1 32.6 25.9 75% 27 76.53 0.0
29 19:35 Calm 16.09 Fair CLR 27.2 21.3 70% 29 76.53 0.0
29 19:15 W 6 16.09 Fair CLR 28.5 21.8 67% 31 76.5 0.0
29 18:55 W 7 16.09 Fair CLR 29.2 21.9 65% 32 76.5 0.0
29 18:35 W 6 16.09 Fair CLR 30.9 21.9 59% 34 76.5 0.0
Date Time (edt) Wind (kph) Vis. (km) Weather Sky Cond. Air Dwpt Max. Min. Relative Humidity Wind Chill (°C) Heat Index (°C) altimeter (cm) sea level (mb) 1 hr 3 hr 6 hr
6 hour
Temperature (ºC) Pressure Precipitation (cm)